createdAt,value
2023-05-06T00:02:23.154Z,18.27
2023-05-06T00:07:26.269Z,18.09
2023-05-06T00:12:27.966Z,17.73
2023-05-06T00:17:29.707Z,17.82
2023-05-06T00:22:32.778Z,17.98
2023-05-06T00:27:34.508Z,17.96
2023-05-06T00:32:36.290Z,17.80
2023-05-06T00:37:39.337Z,18.09
2023-05-06T00:42:41.073Z,17.87
2023-05-06T00:47:43.194Z,17.68
2023-05-06T00:52:46.333Z,17.46
2023-05-06T00:57:50.356Z,17.29
2023-05-06T01:02:52.160Z,17.69
2023-05-06T01:07:58.595Z,17.43
2023-05-06T01:13:04.375Z,17.48
2023-05-06T01:18:08.863Z,17.25
2023-05-06T01:23:12.998Z,17.59
2023-05-06T01:28:14.862Z,17.24
2023-05-06T01:33:20.634Z,17.50
2023-05-06T01:38:27.894Z,17.56
2023-05-06T01:43:31.702Z,16.30
2023-05-06T01:48:33.824Z,16.82
2023-05-06T01:53:36.912Z,17.91
2023-05-06T01:58:38.629Z,17.99
2023-05-06T02:03:40.683Z,17.95
2023-05-06T02:08:44.087Z,16.95
2023-05-06T02:13:50.760Z,17.39
2023-05-06T02:18:53.784Z,17.41
2023-05-06T02:23:56.920Z,16.59
2023-05-06T02:28:58.616Z,17.17
2023-05-06T02:34:00.303Z,17.27
2023-05-06T02:39:04.652Z,17.38
2023-05-06T02:44:06.409Z,17.57
2023-05-06T02:49:26.717Z,17.49
2023-05-06T02:54:29.932Z,17.73
2023-05-06T02:59:31.668Z,17.56
2023-05-06T03:04:33.495Z,17.39
2023-05-06T03:09:36.576Z,17.17
2023-05-06T03:14:38.531Z,17.18
2023-05-06T03:19:40.346Z,17.28
2023-05-06T03:24:45.840Z,17.25
2023-05-06T03:29:47.755Z,17.55
2023-05-06T03:34:50.944Z,17.38
2023-05-06T03:39:56.828Z,17.64
2023-05-06T03:45:01.482Z,17.54
2023-05-06T03:50:07.322Z,17.28
2023-05-06T03:55:12.079Z,17.28
2023-05-06T04:00:14.787Z,17.56
2023-05-06T04:05:21.644Z,17.27
2023-05-06T04:10:24.992Z,17.74
2023-05-06T04:15:32.768Z,17.58
2023-05-06T04:20:35.780Z,17.69
2023-05-06T04:25:39.497Z,17.52
2023-05-06T04:30:41.458Z,17.39
2023-05-06T04:35:50.010Z,17.39
2023-05-06T04:40:53.590Z,17.54
2023-05-06T04:45:55.734Z,17.50
2023-05-06T04:51:04.189Z,17.57
2023-05-06T04:56:07.994Z,17.49
2023-05-06T05:01:11.450Z,17.59
2023-05-06T05:06:13.732Z,17.69
2023-05-06T05:11:16.999Z,17.52
2023-05-06T05:16:19.043Z,17.33
2023-05-06T05:21:21.614Z,17.19
2023-05-06T05:26:25.117Z,16.80
2023-05-06T05:31:29.308Z,16.67
2023-05-06T05:36:31.672Z,16.95
2023-05-06T05:41:36.869Z,16.98
2023-05-06T05:46:38.832Z,16.96
2023-05-06T05:51:41.560Z,16.76
2023-05-06T05:56:46.631Z,16.95
2023-05-06T06:01:49.118Z,17.13
2023-05-06T06:06:51.086Z,17.03
2023-05-06T06:11:54.726Z,17.21
2023-05-06T06:16:56.549Z,16.63
2023-05-06T06:21:58.360Z,17.33
2023-05-06T06:27:02.206Z,17.90
2023-05-06T06:32:04.397Z,17.59
2023-05-06T06:37:07.841Z,17.63
2023-05-06T06:42:11.272Z,17.38
2023-05-06T06:47:22.737Z,17.77
2023-05-06T06:52:24.499Z,17.78
2023-05-06T06:57:27.593Z,17.46
2023-05-06T07:02:29.364Z,17.71
2023-05-06T07:07:31.150Z,18.09
2023-05-06T07:12:34.271Z,18.35
2023-05-06T07:17:36.285Z,19.17
2023-05-06T07:22:37.995Z,17.54
2023-05-06T07:27:41.121Z,17.26
2023-05-06T07:32:43.492Z,17.30
2023-05-06T07:37:45.690Z,17.67
2023-05-06T07:42:48.762Z,19.43
2023-05-06T07:47:50.595Z,18.33
2023-05-06T07:52:52.437Z,18.93
2023-05-06T07:57:55.475Z,19.43
2023-05-06T08:02:57.363Z,18.74
2023-05-06T08:07:59.215Z,17.96
2023-05-06T08:13:02.525Z,18.39
2023-05-06T08:18:13.825Z,18.66
2023-05-06T08:23:20.260Z,18.78
2023-05-06T08:28:24.670Z,18.99
2023-05-06T08:33:27.169Z,19.07
2023-05-06T08:38:29.731Z,19.70
2023-05-06T08:43:33.318Z,20.60
2023-05-06T08:48:35.025Z,20.47
2023-05-06T08:53:37.000Z,20.75
2023-05-06T08:58:40.221Z,21.04
2023-05-06T09:03:41.933Z,23.27
2023-05-06T09:08:43.752Z,27.97
2023-05-06T09:13:46.941Z,29.32
2023-05-06T09:18:48.634Z,26.36
2023-05-06T09:23:50.697Z,25.07
2023-05-06T09:28:53.911Z,24.18
2023-05-06T09:33:56.316Z,23.35
2023-05-06T09:38:58.179Z,22.81
2023-05-06T09:44:01.394Z,22.31
2023-05-06T09:49:03.777Z,21.68
2023-05-06T09:54:05.596Z,21.96
2023-05-06T09:59:08.641Z,22.19
2023-05-06T10:04:10.910Z,22.21
2023-05-06T10:09:12.914Z,23.02
2023-05-06T10:14:16.029Z,23.82
2023-05-06T10:19:19.014Z,23.78
2023-05-06T10:24:23.499Z,27.60
2023-05-06T10:29:26.723Z,28.73
2023-05-06T10:34:28.415Z,27.47
2023-05-06T10:39:30.162Z,26.50
2023-05-06T10:44:57.192Z,26.29
2023-05-06T10:50:21.090Z,25.14
2023-05-06T10:55:27.248Z,24.14
2023-05-06T11:00:32.321Z,23.93
2023-05-06T11:05:46.007Z,23.68
2023-05-06T11:10:47.896Z,23.06
2023-05-06T11:15:52.019Z,22.55
2023-05-06T11:21:22.784Z,23.46
2023-05-06T11:26:24.807Z,23.82
2023-05-06T11:31:27.975Z,23.57
2023-05-06T11:36:29.790Z,23.69
2023-05-06T11:41:31.418Z,23.82
2023-05-06T11:46:34.482Z,24.13
2023-05-06T11:51:36.221Z,24.82
2023-05-06T11:56:44.533Z,24.79
2023-05-06T12:01:47.647Z,24.76
2023-05-06T12:06:49.394Z,24.81
2023-05-06T12:11:51.307Z,24.30
2023-05-06T12:16:56.079Z,24.04
2023-05-06T12:22:19.495Z,24.03
2023-05-06T12:27:31.464Z,23.88
2023-05-06T12:32:34.541Z,23.73
2023-05-06T12:37:36.234Z,23.77
2023-05-06T12:42:37.942Z,23.95
2023-05-06T12:47:51.325Z,24.08
2023-05-06T12:52:53.063Z,24.21
2023-05-06T12:57:57.216Z,23.87
2023-05-06T13:03:01.425Z,23.53
2023-05-06T13:08:04.371Z,23.56
2023-05-06T13:13:06.549Z,23.78
2023-05-06T13:18:09.907Z,24.04
2023-05-06T13:23:11.725Z,24.01
2023-05-06T13:28:13.526Z,24.17
2023-05-06T13:33:16.644Z,24.51
2023-05-06T13:38:18.371Z,24.35
2023-05-06T13:43:20.105Z,24.17
2023-05-06T13:48:23.095Z,23.83
2023-05-06T13:53:24.825Z,23.75
2023-05-06T13:58:26.767Z,23.50
2023-05-06T14:03:29.773Z,23.58
2023-05-06T14:08:32.690Z,23.58
2023-05-06T14:13:34.407Z,23.64
2023-05-06T14:18:37.450Z,23.50
2023-05-06T14:23:39.213Z,23.36
2023-05-06T14:28:40.925Z,22.87
2023-05-06T14:33:43.936Z,22.53
2023-05-06T14:38:45.608Z,22.56
2023-05-06T14:43:47.265Z,22.77
2023-05-06T14:48:50.654Z,22.75
2023-05-06T14:53:52.340Z,22.55
2023-05-06T14:58:54.066Z,22.53
2023-05-06T15:03:57.142Z,22.51
2023-05-06T15:08:58.843Z,22.28
2023-05-06T15:14:00.588Z,22.26
2023-05-06T15:19:04.289Z,22.21
2023-05-06T15:24:06.957Z,22.25
2023-05-06T15:29:08.666Z,21.96
2023-05-06T15:34:11.794Z,21.68
2023-05-06T15:39:13.519Z,21.27
2023-05-06T15:44:16.359Z,20.90
2023-05-06T15:49:48.842Z,20.88
2023-05-06T15:54:41.506Z,20.55
2023-05-06T15:59:43.297Z,20.47
2023-05-06T16:04:46.546Z,19.97
2023-05-06T16:09:49.079Z,19.81
2023-05-06T16:14:51.001Z,19.64
2023-05-06T16:19:54.033Z,19.33
2023-05-06T16:24:56.012Z,19.60
2023-05-06T16:29:57.795Z,19.36
2023-05-06T16:35:00.917Z,19.28
2023-05-06T16:40:02.733Z,19.03
2023-05-06T16:45:06.078Z,18.77
2023-05-06T16:50:09.811Z,18.53
2023-05-06T16:55:11.768Z,18.67
2023-05-06T17:00:15.385Z,18.36
2023-05-06T17:05:20.635Z,18.14
2023-05-06T17:10:29.048Z,17.88
2023-05-06T17:15:31.032Z,18.15
2023-05-06T17:20:51.510Z,18.23
2023-05-06T17:25:57.223Z,18.02
2023-05-06T17:30:58.987Z,17.90
2023-05-06T17:36:02.147Z,17.99
2023-05-06T17:41:04.210Z,17.87
2023-05-06T17:46:06.746Z,17.70
2023-05-06T17:51:09.961Z,17.64
2023-05-06T17:56:11.788Z,17.32
2023-05-06T18:01:13.606Z,17.44
2023-05-06T18:06:16.889Z,17.40
2023-05-06T18:11:18.716Z,17.21
2023-05-06T18:16:20.697Z,17.27
2023-05-06T18:21:23.933Z,17.01
2023-05-06T18:26:39.915Z,16.79
2023-05-06T18:31:46.172Z,16.62
2023-05-06T18:36:49.223Z,16.67
2023-05-06T18:41:51.016Z,16.43
2023-05-06T18:46:52.697Z,16.12
2023-05-06T18:51:56.058Z,16.10
2023-05-06T18:56:58.652Z,16.11
2023-05-06T19:02:01.915Z,16.13
2023-05-06T19:07:05.794Z,15.98
2023-05-06T19:12:07.545Z,15.72
2023-05-06T19:17:09.384Z,15.59
2023-05-06T19:22:13.578Z,15.60
2023-05-06T19:27:15.553Z,15.59
2023-05-06T19:32:17.313Z,15.76
2023-05-06T19:37:20.367Z,15.74
2023-05-06T19:42:22.057Z,15.80
2023-05-06T19:47:23.929Z,15.82
2023-05-06T19:52:30.410Z,15.70
2023-05-06T19:57:33.628Z,15.65
2023-05-06T20:02:36.224Z,15.66
2023-05-06T20:07:39.323Z,15.69
2023-05-06T20:12:41.336Z,15.48
2023-05-06T20:17:43.255Z,15.53
2023-05-06T20:22:46.352Z,15.42
2023-05-06T20:27:48.083Z,15.43
2023-05-06T20:32:51.968Z,15.45
2023-05-06T20:37:55.701Z,15.44
2023-05-06T20:42:57.467Z,15.28
2023-05-06T20:47:59.279Z,15.11
2023-05-06T20:53:02.408Z,15.07
2023-05-06T20:58:04.306Z,15.00
2023-05-06T21:03:06.174Z,14.87
2023-05-06T21:08:09.328Z,14.95
2023-05-06T21:13:11.058Z,14.95
2023-05-06T21:18:13.217Z,14.96
2023-05-06T21:23:16.421Z,15.02
2023-05-06T21:28:18.232Z,14.84
2023-05-06T21:33:19.982Z,14.82
2023-05-06T21:38:23.110Z,14.71
2023-05-06T21:43:24.848Z,14.39
2023-05-06T21:48:26.583Z,14.42
2023-05-06T21:53:29.628Z,14.43
2023-05-06T21:58:31.332Z,14.56
2023-05-06T22:03:33.151Z,14.52
2023-05-06T22:08:36.302Z,14.53
2023-05-06T22:13:38.038Z,14.60
2023-05-06T22:18:41.456Z,14.51
2023-05-06T22:23:44.713Z,14.48
2023-05-06T22:28:47.033Z,14.57
2023-05-06T22:33:52.093Z,14.60
2023-05-06T22:38:55.234Z,14.60
2023-05-06T22:43:59.907Z,14.54
2023-05-06T22:49:01.715Z,14.58
2023-05-06T22:54:04.983Z,14.41
2023-05-06T22:59:07.113Z,14.34
2023-05-06T23:04:08.913Z,14.43
2023-05-06T23:09:12.478Z,14.46
2023-05-06T23:14:14.200Z,14.51
2023-05-06T23:19:15.889Z,14.48
2023-05-06T23:24:18.900Z,14.47
2023-05-06T23:29:20.666Z,14.57
2023-05-06T23:34:22.399Z,14.62
2023-05-06T23:39:25.455Z,14.64
2023-05-06T23:44:27.207Z,14.71
2023-05-06T23:49:28.928Z,14.68
2023-05-06T23:54:31.964Z,14.60
2023-05-06T23:59:33.757Z,14.62
